createdAt,value
2018-06-04T00:01:22.765Z,20.90
2018-06-04T00:06:15.686Z,20.89
2018-06-04T00:11:08.570Z,20.89
2018-06-04T00:16:01.434Z,20.85
2018-06-04T00:20:54.383Z,20.79
2018-06-04T00:25:47.313Z,20.72
2018-06-04T00:30:40.229Z,20.65
2018-06-04T00:35:33.176Z,20.59
2018-06-04T00:40:26.065Z,20.55
2018-06-04T00:45:18.924Z,20.52
2018-06-04T00:50:11.876Z,20.49
2018-06-04T00:55:04.869Z,20.45
2018-06-04T00:59:57.790Z,20.39
2018-06-04T01:04:50.687Z,20.37
2018-06-04T01:09:43.547Z,20.32
2018-06-04T01:14:36.500Z,20.26
2018-06-04T01:19:29.473Z,20.21
2018-06-04T01:24:22.346Z,20.17
2018-06-04T01:29:15.247Z,20.09
2018-06-04T01:34:08.137Z,20.03
2018-06-04T01:39:00.999Z,19.99
2018-06-04T01:43:53.922Z,19.96
2018-06-04T01:48:46.858Z,19.90
2018-06-04T01:53:40.252Z,19.86
2018-06-04T01:58:33.160Z,19.76
2018-06-04T02:03:26.012Z,19.68
2018-06-04T02:08:18.965Z,19.63
2018-06-04T02:13:11.905Z,19.57
2018-06-04T02:18:04.835Z,19.55
2018-06-04T02:22:57.746Z,19.51
2018-06-04T02:27:50.598Z,19.46
2018-06-04T02:32:43.474Z,19.42
2018-06-04T02:37:36.423Z,19.44
2018-06-04T02:42:29.310Z,19.41
2018-06-04T02:47:22.252Z,19.35
2018-06-04T02:52:15.171Z,19.27
2018-06-04T02:57:07.997Z,19.24
2018-06-04T03:02:01.005Z,19.18
2018-06-04T03:06:53.919Z,19.18
2018-06-04T03:11:46.932Z,19.17
2018-06-04T03:16:39.833Z,19.14
2018-06-04T03:21:32.702Z,19.11
2018-06-04T03:26:25.547Z,19.11
2018-06-04T03:31:18.534Z,19.12
2018-06-04T03:36:11.406Z,19.11
2018-06-04T03:41:04.274Z,19.11
2018-06-04T03:45:57.189Z,19.13
2018-06-04T03:50:50.094Z,19.13
2018-06-04T03:55:42.993Z,19.15
2018-06-04T04:00:35.966Z,19.13
2018-06-04T04:05:28.954Z,19.15
2018-06-04T04:10:21.996Z,19.14
2018-06-04T04:15:14.875Z,19.13
2018-06-04T04:20:07.721Z,19.17
2018-06-04T04:25:00.552Z,19.23
2018-06-04T04:29:53.493Z,19.26
2018-06-04T04:34:46.434Z,19.28
2018-06-04T04:39:39.375Z,19.31
2018-06-04T04:44:32.302Z,19.34
2018-06-04T04:49:25.240Z,19.40
2018-06-04T04:54:18.329Z,19.50
2018-06-04T04:59:11.257Z,19.56
2018-06-04T05:04:04.224Z,19.60
2018-06-04T05:08:57.230Z,19.65
2018-06-04T05:13:50.019Z,19.68
2018-06-04T05:18:42.825Z,19.68
2018-06-04T05:23:35.794Z,19.75
2018-06-04T05:28:28.582Z,19.78
2018-06-04T05:33:21.431Z,19.81
2018-06-04T05:38:14.282Z,19.86
2018-06-04T05:43:07.202Z,19.93
2018-06-04T05:48:00.015Z,20.03
2018-06-04T05:52:52.978Z,20.10
2018-06-04T05:57:45.969Z,20.17
2018-06-04T06:02:38.995Z,20.23
2018-06-04T06:07:31.951Z,20.28
2018-06-04T06:12:25.049Z,20.36
2018-06-04T06:17:17.937Z,20.46
2018-06-04T06:22:10.874Z,20.55
2018-06-04T06:27:03.730Z,20.63
2018-06-04T06:31:56.660Z,20.70
2018-06-04T06:36:49.610Z,20.80
2018-06-04T06:41:42.575Z,20.89
2018-06-04T06:46:35.475Z,20.96
2018-06-04T06:51:28.485Z,21.05
2018-06-04T06:56:21.347Z,21.15
2018-06-04T07:01:14.307Z,21.22
2018-06-04T07:06:07.185Z,21.27
2018-06-04T07:11:00.051Z,21.28
2018-06-04T07:15:52.925Z,21.39
2018-06-04T07:20:45.886Z,21.64
2018-06-04T07:25:38.701Z,22.66
2018-06-04T07:30:31.666Z,23.96
2018-06-04T07:35:24.529Z,25.00
2018-06-04T07:40:17.531Z,26.10
2018-06-04T07:45:10.515Z,26.98
2018-06-04T07:50:03.481Z,27.54
2018-06-04T07:54:56.382Z,28.06
2018-06-04T07:59:49.297Z,28.33
2018-06-04T08:04:42.205Z,28.59
2018-06-04T08:09:35.152Z,28.85
2018-06-04T08:14:27.994Z,28.67
2018-06-04T08:19:20.914Z,27.68
2018-06-04T08:24:13.803Z,27.09
2018-06-04T08:29:06.766Z,26.90
2018-06-04T08:33:59.684Z,26.61
2018-06-04T08:38:52.571Z,26.76
2018-06-04T08:43:45.474Z,26.94
2018-06-04T08:48:38.484Z,26.87
2018-06-04T08:53:31.382Z,26.64
2018-06-04T08:58:24.368Z,26.44
2018-06-04T09:03:17.513Z,26.46
2018-06-04T09:08:10.612Z,26.54
2018-06-04T09:13:03.744Z,26.07
2018-06-04T09:17:56.811Z,25.91
2018-06-04T09:22:49.680Z,26.02
2018-06-04T09:27:42.646Z,25.74
2018-06-04T09:32:35.573Z,25.77
2018-06-04T09:37:28.491Z,25.74
2018-06-04T09:42:21.441Z,25.77
2018-06-04T09:47:14.505Z,25.98
2018-06-04T09:52:07.413Z,26.36
2018-06-04T09:57:00.249Z,26.45
2018-06-04T10:01:53.155Z,26.54
2018-06-04T10:06:46.124Z,26.69
2018-06-04T10:11:39.046Z,26.90
2018-06-04T10:16:32.030Z,26.82
2018-06-04T10:21:25.003Z,26.46
2018-06-04T10:26:18.351Z,26.24
2018-06-04T10:31:11.300Z,26.17
2018-06-04T10:36:04.238Z,26.41
2018-06-04T10:40:57.166Z,26.57
2018-06-04T10:45:50.042Z,26.62
2018-06-04T10:50:42.931Z,26.67
2018-06-04T10:55:35.846Z,27.01
2018-06-04T11:00:28.716Z,27.14
2018-06-04T11:05:21.660Z,27.04
2018-06-04T11:10:14.583Z,26.97
2018-06-04T11:15:07.557Z,26.82
2018-06-04T11:20:00.529Z,26.63
2018-06-04T11:24:53.534Z,26.47
2018-06-04T11:29:46.543Z,26.41
2018-06-04T11:34:39.511Z,26.41
2018-06-04T11:39:32.441Z,26.52
2018-06-04T11:44:25.357Z,26.68
2018-06-04T11:49:18.342Z,26.69
2018-06-04T11:54:11.396Z,26.81
2018-06-04T11:59:04.240Z,26.88
2018-06-04T12:03:57.146Z,27.20
2018-06-04T12:08:49.982Z,27.63
2018-06-04T12:13:42.872Z,27.87
2018-06-04T12:18:35.749Z,27.88
2018-06-04T12:23:28.667Z,27.82
2018-06-04T12:28:21.655Z,27.77
2018-06-04T12:33:14.500Z,27.85
2018-06-04T12:38:07.508Z,27.93
2018-06-04T12:43:01.160Z,28.07
2018-06-04T12:47:54.157Z,28.25
2018-06-04T12:52:47.018Z,28.30
2018-06-04T12:57:40.020Z,28.37
2018-06-04T13:02:33.013Z,28.46
2018-06-04T13:07:25.913Z,28.50
2018-06-04T13:12:18.896Z,28.56
2018-06-04T13:17:11.783Z,28.62
2018-06-04T13:22:04.739Z,28.68
2018-06-04T13:26:57.637Z,28.76
2018-06-04T13:31:50.772Z,28.87
2018-06-04T13:36:43.754Z,28.96
2018-06-04T13:41:36.758Z,28.96
2018-06-04T13:46:29.695Z,28.89
2018-06-04T13:51:22.620Z,28.91
2018-06-04T13:56:15.622Z,28.95
2018-06-04T14:01:08.640Z,29.00
2018-06-04T14:06:01.554Z,29.00
2018-06-04T14:10:54.487Z,29.06
2018-06-04T14:15:47.378Z,29.09
2018-06-04T14:20:40.289Z,29.11
2018-06-04T14:25:33.252Z,29.15
2018-06-04T14:30:26.487Z,29.24
2018-06-04T14:35:19.340Z,29.30
2018-06-04T14:40:12.234Z,29.35
2018-06-04T14:45:05.143Z,29.39
2018-06-04T14:49:58.176Z,29.39
2018-06-04T14:54:50.965Z,29.39
2018-06-04T14:59:43.826Z,29.40
2018-06-04T15:04:36.698Z,29.36
2018-06-04T15:09:29.609Z,29.30
2018-06-04T15:14:22.505Z,29.26
2018-06-04T15:19:15.391Z,29.24
2018-06-04T15:24:08.355Z,29.22
2018-06-04T15:29:01.280Z,29.11
2018-06-04T15:33:54.257Z,29.08
2018-06-04T15:38:47.037Z,29.11
2018-06-04T15:43:39.939Z,29.14
2018-06-04T15:48:32.765Z,29.13
2018-06-04T15:53:25.661Z,29.12
2018-06-04T15:58:18.777Z,29.08
2018-06-04T16:03:11.602Z,29.03
2018-06-04T16:08:04.526Z,29.01
2018-06-04T16:12:57.450Z,28.96
2018-06-04T16:17:50.378Z,28.91
2018-06-04T16:22:43.269Z,28.87
2018-06-04T16:27:36.165Z,28.79
2018-06-04T16:32:29.055Z,28.74
2018-06-04T16:37:22.071Z,28.70
2018-06-04T16:42:14.932Z,28.68
2018-06-04T16:47:07.848Z,28.61
2018-06-04T16:52:00.696Z,28.54
2018-06-04T16:56:53.637Z,28.49
2018-06-04T17:01:46.575Z,28.46
2018-06-04T17:06:39.725Z,28.40
2018-06-04T17:11:32.593Z,28.32
2018-06-04T17:16:25.510Z,28.24
2018-06-04T17:21:18.345Z,28.18
2018-06-04T17:26:11.342Z,28.12
2018-06-04T17:31:04.172Z,28.02
2018-06-04T17:35:57.025Z,27.94
2018-06-04T17:40:50.022Z,27.87
2018-06-04T17:45:43.013Z,27.80
2018-06-04T17:50:35.879Z,27.74
2018-06-04T17:55:28.937Z,27.64
2018-06-04T18:00:21.853Z,27.56
2018-06-04T18:05:15.085Z,27.50
2018-06-04T18:10:08.130Z,27.45
2018-06-04T18:15:01.115Z,27.40
2018-06-04T18:19:54.049Z,27.31
2018-06-04T18:24:47.023Z,27.24
2018-06-04T18:29:39.956Z,27.19
2018-06-04T18:34:32.886Z,27.14
2018-06-04T18:39:25.826Z,27.07
2018-06-04T18:44:18.738Z,26.99
2018-06-04T18:49:11.680Z,26.91
2018-06-04T18:54:04.735Z,26.83
2018-06-04T18:58:57.648Z,26.72
2018-06-04T19:03:50.617Z,26.64
2018-06-04T19:08:43.568Z,26.52
2018-06-04T19:13:36.432Z,26.43
2018-06-04T19:18:45.768Z,26.32
2018-06-04T19:23:38.874Z,26.27
2018-06-04T19:28:32.426Z,26.18
2018-06-04T19:33:25.372Z,26.08
2018-06-04T19:38:18.286Z,25.97
2018-06-04T19:43:11.212Z,25.88
2018-06-04T19:48:04.891Z,25.78
2018-06-04T19:52:57.752Z,25.70
2018-06-04T19:57:50.646Z,25.59
2018-06-04T20:02:43.577Z,25.50
2018-06-04T20:07:36.555Z,25.40
2018-06-04T20:12:29.407Z,25.32
2018-06-04T20:17:22.242Z,25.17
2018-06-04T20:22:15.087Z,25.06
2018-06-04T20:27:07.906Z,24.96
2018-06-04T20:32:00.821Z,24.87
2018-06-04T20:36:53.756Z,24.74
2018-06-04T20:41:46.743Z,24.62
2018-06-04T20:46:39.710Z,24.50
2018-06-04T20:51:32.751Z,24.37
2018-06-04T20:56:25.740Z,24.26
2018-06-04T21:01:18.635Z,24.12
2018-06-04T21:06:11.627Z,23.98
2018-06-04T21:11:04.601Z,23.87
2018-06-04T21:15:57.486Z,23.79
2018-06-04T21:20:50.484Z,23.64
2018-06-04T21:25:43.334Z,23.53
2018-06-04T21:30:36.232Z,23.46
2018-06-04T21:35:29.067Z,23.38
2018-06-04T21:40:21.910Z,23.27
2018-06-04T21:45:14.789Z,23.18
2018-06-04T21:50:07.671Z,23.08
2018-06-04T21:55:00.554Z,22.99
2018-06-04T21:59:53.534Z,22.91
2018-06-04T22:04:46.500Z,22.84
2018-06-04T22:09:39.427Z,22.77
2018-06-04T22:14:32.341Z,22.73
2018-06-04T22:19:25.191Z,22.64
2018-06-04T22:24:18.209Z,22.53
2018-06-04T22:29:13.238Z,22.41
2018-06-04T22:34:06.152Z,22.29
2018-06-04T22:38:59.162Z,22.20
2018-06-04T22:43:52.112Z,22.10
2018-06-04T22:48:45.180Z,21.99
2018-06-04T22:53:38.176Z,21.91
2018-06-04T22:58:31.046Z,21.80
2018-06-04T23:03:23.944Z,21.70
2018-06-04T23:08:16.836Z,21.59
2018-06-04T23:13:09.790Z,21.51
2018-06-04T23:18:02.675Z,21.44
2018-06-04T23:22:55.592Z,21.36
2018-06-04T23:27:48.516Z,21.32
2018-06-04T23:32:41.466Z,21.29
2018-06-04T23:37:34.445Z,21.26
2018-06-04T23:42:27.366Z,21.18
2018-06-04T23:47:20.405Z,21.12
2018-06-04T23:52:13.287Z,21.05
2018-06-04T23:57:06.206Z,20.99
